sensor_id;sensor_type;location;lat;lon;timestamp;P1;durP1;ratioP1;P2;durP2;ratioP2
61553;SDS011;47425;51.976;5.326;2024-02-23T00:02:16;1.30;;;0.73;;
61553;SDS011;47425;51.976;5.326;2024-02-23T00:04:42;2.92;;;1.02;;
61553;SDS011;47425;51.976;5.326;2024-02-23T00:07:11;1.70;;;0.77;;
61553;SDS011;47425;51.976;5.326;2024-02-23T00:09:38;2.10;;;0.90;;
61553;SDS011;47425;51.976;5.326;2024-02-23T00:12:06;1.52;;;0.63;;
61553;SDS011;47425;51.976;5.326;2024-02-23T00:14:33;4.45;;;1.00;;
61553;SDS011;47425;51.976;5.326;2024-02-23T00:17:01;4.85;;;1.15;;
61553;SDS011;47425;51.976;5.326;2024-02-23T00:19:29;2.08;;;0.80;;
61553;SDS011;47425;51.976;5.326;2024-02-23T00:21:56;1.88;;;0.80;;
61553;SDS011;47425;51.976;5.326;2024-02-23T00:24:25;4.25;;;1.02;;
61553;SDS011;47425;51.976;5.326;2024-02-23T00:26:54;4.25;;;0.75;;
61553;SDS011;47425;51.976;5.326;2024-02-23T00:29:20;4.22;;;1.13;;
61553;SDS011;47425;51.976;5.326;2024-02-23T00:31:47;6.00;;;1.02;;
61553;SDS011;47425;51.976;5.326;2024-02-23T00:34:14;3.80;;;1.30;;
61553;SDS011;47425;51.976;5.326;2024-02-23T00:36:42;2.50;;;0.93;;
61553;SDS011;47425;51.976;5.326;2024-02-23T00:39:11;1.88;;;0.82;;
61553;SDS011;47425;51.976;5.326;2024-02-23T00:41:39;3.60;;;0.82;;
61553;SDS011;47425;51.976;5.326;2024-02-23T00:44:05;3.33;;;0.95;;
61553;SDS011;47425;51.976;5.326;2024-02-23T00:46:32;3.13;;;0.90;;
61553;SDS011;47425;51.976;5.326;2024-02-23T00:48:59;1.95;;;0.80;;
61553;SDS011;47425;51.976;5.326;2024-02-23T00:51:27;5.00;;;1.05;;
61553;SDS011;47425;51.976;5.326;2024-02-23T00:53:54;3.00;;;0.85;;
61553;SDS011;47425;51.976;5.326;2024-02-23T00:56:21;3.03;;;1.10;;
61553;SDS011;47425;51.976;5.326;2024-02-23T00:58:50;4.75;;;1.15;;
61553;SDS011;47425;51.976;5.326;2024-02-23T01:01:17;1.75;;;0.90;;
61553;SDS011;47425;51.976;5.326;2024-02-23T01:03:45;2.00;;;0.70;;
61553;SDS011;47425;51.976;5.326;2024-02-23T01:06:11;3.08;;;1.45;;
61553;SDS011;47425;51.976;5.326;2024-02-23T01:08:38;3.22;;;1.00;;
61553;SDS011;47425;51.976;5.326;2024-02-23T01:11:05;1.83;;;0.73;;
61553;SDS011;47425;51.976;5.326;2024-02-23T01:13:32;4.13;;;0.90;;
61553;SDS011;47425;51.976;5.326;2024-02-23T01:16:01;2.30;;;0.70;;
61553;SDS011;47425;51.976;5.326;2024-02-23T01:18:28;2.10;;;0.87;;
61553;SDS011;47425;51.976;5.326;2024-02-23T01:20:55;1.77;;;0.73;;
61553;SDS011;47425;51.976;5.326;2024-02-23T01:23:22;4.63;;;1.15;;
61553;SDS011;47425;51.976;5.326;2024-02-23T01:25:49;4.38;;;0.75;;
61553;SDS011;47425;51.976;5.326;2024-02-23T01:28:17;1.83;;;0.87;;
61553;SDS011;47425;51.976;5.326;2024-02-23T01:30:43;2.45;;;0.80;;
61553;SDS011;47425;51.976;5.326;2024-02-23T01:33:11;4.03;;;0.90;;
61553;SDS011;47425;51.976;5.326;2024-02-23T01:35:38;4.43;;;1.27;;
61553;SDS011;47425;51.976;5.326;2024-02-23T01:38:05;4.70;;;0.90;;
61553;SDS011;47425;51.976;5.326;2024-02-23T01:40:33;2.70;;;0.90;;
61553;SDS011;47425;51.976;5.326;2024-02-23T01:43:00;1.80;;;0.70;;
61553;SDS011;47425;51.976;5.326;2024-02-23T01:45:28;2.83;;;1.20;;
61553;SDS011;47425;51.976;5.326;2024-02-23T01:47:55;2.33;;;1.05;;
61553;SDS011;47425;51.976;5.326;2024-02-23T01:50:23;2.80;;;1.25;;
61553;SDS011;47425;51.976;5.326;2024-02-23T01:52:51;4.50;;;1.02;;
61553;SDS011;47425;51.976;5.326;2024-02-23T01:55:19;5.32;;;1.15;;
61553;SDS011;47425;51.976;5.326;2024-02-23T01:57:47;3.13;;;1.23;;
61553;SDS011;47425;51.976;5.326;2024-02-23T02:00:15;3.03;;;1.33;;
61553;SDS011;47425;51.976;5.326;2024-02-23T02:02:49;3.35;;;1.27;;
61553;SDS011;47425;51.976;5.326;2024-02-23T02:05:16;2.15;;;0.90;;
61553;SDS011;47425;51.976;5.326;2024-02-23T02:07:46;3.72;;;1.38;;
61553;SDS011;47425;51.976;5.326;2024-02-23T02:10:17;4.85;;;0.95;;
61553;SDS011;47425;51.976;5.326;2024-02-23T02:12:43;5.95;;;1.20;;
61553;SDS011;47425;51.976;5.326;2024-02-23T02:15:10;4.20;;;1.33;;
61553;SDS011;47425;51.976;5.326;2024-02-23T02:17:37;2.70;;;1.25;;
61553;SDS011;47425;51.976;5.326;2024-02-23T02:20:05;4.88;;;0.82;;
61553;SDS011;47425;51.976;5.326;2024-02-23T02:22:38;2.88;;;1.15;;
61553;SDS011;47425;51.976;5.326;2024-02-23T02:25:07;4.90;;;1.10;;
61553;SDS011;47425;51.976;5.326;2024-02-23T02:27:34;5.13;;;1.20;;
61553;SDS011;47425;51.976;5.326;2024-02-23T02:30:01;3.20;;;1.08;;
61553;SDS011;47425;51.976;5.326;2024-02-23T02:32:29;6.72;;;1.30;;
61553;SDS011;47425;51.976;5.326;2024-02-23T02:34:55;2.67;;;1.00;;
61553;SDS011;47425;51.976;5.326;2024-02-23T02:37:22;3.85;;;1.10;;
61553;SDS011;47425;51.976;5.326;2024-02-23T02:39:48;5.03;;;1.40;;
61553;SDS011;47425;51.976;5.326;2024-02-23T02:42:16;2.67;;;1.00;;
61553;SDS011;47425;51.976;5.326;2024-02-23T02:44:44;4.20;;;1.30;;
61553;SDS011;47425;51.976;5.326;2024-02-23T02:47:11;2.90;;;0.93;;
61553;SDS011;47425;51.976;5.326;2024-02-23T02:49:39;5.28;;;1.30;;
61553;SDS011;47425;51.976;5.326;2024-02-23T02:52:05;2.95;;;1.00;;
61553;SDS011;47425;51.976;5.326;2024-02-23T02:54:33;5.35;;;1.30;;
61553;SDS011;47425;51.976;5.326;2024-02-23T02:57:00;3.45;;;1.30;;
61553;SDS011;47425;51.976;5.326;2024-02-23T02:59:28;4.88;;;1.10;;
61553;SDS011;47425;51.976;5.326;2024-02-23T03:01:55;2.13;;;1.10;;
61553;SDS011;47425;51.976;5.326;2024-02-23T03:04:23;3.72;;;1.17;;
61553;SDS011;47425;51.976;5.326;2024-02-23T03:06:50;3.83;;;1.10;;
61553;SDS011;47425;51.976;5.326;2024-02-23T03:09:17;4.97;;;1.40;;
61553;SDS011;47425;51.976;5.326;2024-02-23T03:11:44;6.05;;;1.40;;
61553;SDS011;47425;51.976;5.326;2024-02-23T03:14:11;3.15;;;1.05;;
61553;SDS011;47425;51.976;5.326;2024-02-23T03:16:39;3.83;;;1.30;;
61553;SDS011;47425;51.976;5.326;2024-02-23T03:19:05;4.67;;;1.03;;
61553;SDS011;47425;51.976;5.326;2024-02-23T03:21:34;5.35;;;1.08;;
61553;SDS011;47425;51.976;5.326;2024-02-23T03:24:01;2.38;;;1.00;;
61553;SDS011;47425;51.976;5.326;2024-02-23T03:26:28;6.13;;;1.40;;
61553;SDS011;47425;51.976;5.326;2024-02-23T03:28:54;3.13;;;1.20;;
61553;SDS011;47425;51.976;5.326;2024-02-23T03:31:21;2.85;;;0.93;;
61553;SDS011;47425;51.976;5.326;2024-02-23T03:33:49;6.13;;;1.40;;
61553;SDS011;47425;51.976;5.326;2024-02-23T03:36:17;3.92;;;1.08;;
61553;SDS011;47425;51.976;5.326;2024-02-23T03:38:43;2.88;;;1.15;;
61553;SDS011;47425;51.976;5.326;2024-02-23T03:41:10;2.63;;;0.93;;
61553;SDS011;47425;51.976;5.326;2024-02-23T03:43:37;3.65;;;1.02;;
61553;SDS011;47425;51.976;5.326;2024-02-23T03:46:03;4.70;;;1.50;;
61553;SDS011;47425;51.976;5.326;2024-02-23T03:48:33;5.50;;;1.27;;
61553;SDS011;47425;51.976;5.326;2024-02-23T03:51:04;2.92;;;0.95;;
61553;SDS011;47425;51.976;5.326;2024-02-23T03:53:31;3.80;;;1.10;;
61553;SDS011;47425;51.976;5.326;2024-02-23T03:55:57;2.88;;;1.08;;
61553;SDS011;47425;51.976;5.326;2024-02-23T03:58:24;4.95;;;1.15;;
61553;SDS011;47425;51.976;5.326;2024-02-23T04:00:52;3.17;;;0.98;;
61553;SDS011;47425;51.976;5.326;2024-02-23T04:03:18;4.43;;;1.00;;
61553;SDS011;47425;51.976;5.326;2024-02-23T04:05:45;3.95;;;1.10;;
61553;SDS011;47425;51.976;5.326;2024-02-23T04:08:13;3.47;;;1.27;;
61553;SDS011;47425;51.976;5.326;2024-02-23T04:10:40;2.80;;;0.80;;
61553;SDS011;47425;51.976;5.326;2024-02-23T04:13:07;4.15;;;0.80;;
61553;SDS011;47425;51.976;5.326;2024-02-23T04:15:35;3.67;;;1.00;;
61553;SDS011;47425;51.976;5.326;2024-02-23T04:18:02;5.40;;;1.10;;
61553;SDS011;47425;51.976;5.326;2024-02-23T04:20:29;3.50;;;1.10;;
61553;SDS011;47425;51.976;5.326;2024-02-23T04:22:55;3.92;;;0.80;;
61553;SDS011;47425;51.976;5.326;2024-02-23T04:25:25;3.30;;;0.90;;
61553;SDS011;47425;51.976;5.326;2024-02-23T04:27:51;3.33;;;0.90;;
61553;SDS011;47425;51.976;5.326;2024-02-23T04:30:18;4.15;;;0.93;;
61553;SDS011;47425;51.976;5.326;2024-02-23T04:32:44;2.75;;;1.00;;
61553;SDS011;47425;51.976;5.326;2024-02-23T04:35:11;1.90;;;0.75;;
61553;SDS011;47425;51.976;5.326;2024-02-23T04:37:39;1.55;;;1.00;;
61553;SDS011;47425;51.976;5.326;2024-02-23T04:40:06;3.95;;;1.30;;
61553;SDS011;47425;51.976;5.326;2024-02-23T04:42:35;3.08;;;0.77;;
61553;SDS011;47425;51.976;5.326;2024-02-23T04:45:01;2.00;;;0.80;;
61553;SDS011;47425;51.976;5.326;2024-02-23T04:47:28;2.38;;;1.20;;
61553;SDS011;47425;51.976;5.326;2024-02-23T04:49:56;3.45;;;0.80;;
61553;SDS011;47425;51.976;5.326;2024-02-23T04:52:23;4.32;;;1.02;;
61553;SDS011;47425;51.976;5.326;2024-02-23T04:54:49;1.80;;;0.80;;
61553;SDS011;47425;51.976;5.326;2024-02-23T04:57:16;3.13;;;0.85;;
61553;SDS011;47425;51.976;5.326;2024-02-23T04:59:44;2.90;;;0.90;;
61553;SDS011;47425;51.976;5.326;2024-02-23T05:02:10;2.90;;;1.15;;
61553;SDS011;47425;51.976;5.326;2024-02-23T05:04:38;2.08;;;0.95;;
61553;SDS011;47425;51.976;5.326;2024-02-23T05:07:05;4.85;;;1.40;;
61553;SDS011;47425;51.976;5.326;2024-02-23T05:09:31;4.13;;;1.08;;
61553;SDS011;47425;51.976;5.326;2024-02-23T05:11:58;2.58;;;0.95;;
61553;SDS011;47425;51.976;5.326;2024-02-23T05:14:26;3.72;;;0.95;;
61553;SDS011;47425;51.976;5.326;2024-02-23T05:16:54;3.20;;;1.10;;
61553;SDS011;47425;51.976;5.326;2024-02-23T05:19:20;2.47;;;0.90;;
61553;SDS011;47425;51.976;5.326;2024-02-23T05:21:47;5.40;;;0.93;;
61553;SDS011;47425;51.976;5.326;2024-02-23T05:24:14;2.67;;;1.35;;
61553;SDS011;47425;51.976;5.326;2024-02-23T05:26:40;3.00;;;0.82;;
61553;SDS011;47425;51.976;5.326;2024-02-23T05:29:07;2.85;;;0.80;;
61553;SDS011;47425;51.976;5.326;2024-02-23T05:31:44;4.57;;;1.00;;
61553;SDS011;47425;51.976;5.326;2024-02-23T05:34:13;5.03;;;0.95;;
61553;SDS011;47425;51.976;5.326;2024-02-23T05:36:40;2.50;;;0.95;;
61553;SDS011;47425;51.976;5.326;2024-02-23T05:39:07;3.75;;;1.45;;
61553;SDS011;47425;51.976;5.326;2024-02-23T05:41:35;3.90;;;1.17;;
61553;SDS011;47425;51.976;5.326;2024-02-23T05:44:02;5.00;;;1.08;;
61553;SDS011;47425;51.976;5.326;2024-02-23T05:46:30;4.50;;;1.17;;
61553;SDS011;47425;51.976;5.326;2024-02-23T05:48:57;3.78;;;1.02;;
61553;SDS011;47425;51.976;5.326;2024-02-23T05:51:26;3.42;;;1.00;;
61553;SDS011;47425;51.976;5.326;2024-02-23T05:53:55;2.83;;;0.80;;
61553;SDS011;47425;51.976;5.326;2024-02-23T05:56:22;1.92;;;0.90;;
61553;SDS011;47425;51.976;5.326;2024-02-23T05:58:49;3.03;;;0.90;;
61553;SDS011;47425;51.976;5.326;2024-02-23T06:01:16;1.60;;;0.98;;
61553;SDS011;47425;51.976;5.326;2024-02-23T06:03:43;4.38;;;1.02;;
61553;SDS011;47425;51.976;5.326;2024-02-23T06:06:11;4.20;;;1.37;;
61553;SDS011;47425;51.976;5.326;2024-02-23T06:08:40;2.22;;;0.80;;
61553;SDS011;47425;51.976;5.326;2024-02-23T06:11:09;2.63;;;0.90;;
61553;SDS011;47425;51.976;5.326;2024-02-23T06:13:35;2.33;;;0.93;;
61553;SDS011;47425;51.976;5.326;2024-02-23T06:16:02;4.07;;;0.90;;
61553;SDS011;47425;51.976;5.326;2024-02-23T06:18:29;3.75;;;1.08;;
61553;SDS011;47425;51.976;5.326;2024-02-23T06:20:57;3.00;;;1.00;;
61553;SDS011;47425;51.976;5.326;2024-02-23T06:23:24;2.63;;;0.98;;
61553;SDS011;47425;51.976;5.326;2024-02-23T06:25:52;3.10;;;0.93;;
61553;SDS011;47425;51.976;5.326;2024-02-23T06:28:19;4.80;;;1.23;;
61553;SDS011;47425;51.976;5.326;2024-02-23T06:30:45;1.63;;;0.88;;
61553;SDS011;47425;51.976;5.326;2024-02-23T06:33:13;1.85;;;0.90;;
61553;SDS011;47425;51.976;5.326;2024-02-23T06:35:40;2.97;;;0.93;;
61553;SDS011;47425;51.976;5.326;2024-02-23T06:38:07;3.38;;;0.98;;
61553;SDS011;47425;51.976;5.326;2024-02-23T06:40:33;2.88;;;0.95;;
61553;SDS011;47425;51.976;5.326;2024-02-23T06:43:01;4.25;;;0.90;;
61553;SDS011;47425;51.976;5.326;2024-02-23T06:45:29;3.22;;;1.15;;
61553;SDS011;47425;51.976;5.326;2024-02-23T06:47:56;2.20;;;0.75;;
61553;SDS011;47425;51.976;5.326;2024-02-23T06:50:23;3.55;;;0.98;;
61553;SDS011;47425;51.976;5.326;2024-02-23T06:52:49;2.70;;;0.90;;
61553;SDS011;47425;51.976;5.326;2024-02-23T06:55:16;3.25;;;0.80;;
61553;SDS011;47425;51.976;5.326;2024-02-23T06:57:44;2.70;;;0.95;;
61553;SDS011;47425;51.976;5.326;2024-02-23T07:00:12;3.85;;;1.05;;
61553;SDS011;47425;51.976;5.326;2024-02-23T07:02:39;2.78;;;0.82;;
61553;SDS011;47425;51.976;5.326;2024-02-23T07:05:06;2.08;;;0.90;;
61553;SDS011;47425;51.976;5.326;2024-02-23T07:07:34;4.18;;;1.02;;
61553;SDS011;47425;51.976;5.326;2024-02-23T07:10:02;3.72;;;1.17;;
61553;SDS011;47425;51.976;5.326;2024-02-23T07:12:29;3.80;;;1.15;;
61553;SDS011;47425;51.976;5.326;2024-02-23T07:14:55;2.25;;;1.02;;
61553;SDS011;47425;51.976;5.326;2024-02-23T07:17:23;3.33;;;1.10;;
61553;SDS011;47425;51.976;5.326;2024-02-23T07:19:50;21.73;;;4.20;;
61553;SDS011;47425;51.976;5.326;2024-02-23T07:22:19;12.80;;;3.35;;
61553;SDS011;47425;51.976;5.326;2024-02-23T07:24:46;19.05;;;4.03;;
61553;SDS011;47425;51.976;5.326;2024-02-23T07:27:14;24.25;;;5.20;;
61553;SDS011;47425;51.976;5.326;2024-02-23T07:29:41;26.40;;;5.20;;
61553;SDS011;47425;51.976;5.326;2024-02-23T07:32:07;21.83;;;4.97;;
61553;SDS011;47425;51.976;5.326;2024-02-23T07:34:35;22.73;;;5.20;;
61553;SDS011;47425;51.976;5.326;2024-02-23T07:37:03;18.45;;;4.50;;
61553;SDS011;47425;51.976;5.326;2024-02-23T07:39:30;21.85;;;4.90;;
61553;SDS011;47425;51.976;5.326;2024-02-23T07:41:56;20.05;;;5.00;;
61553;SDS011;47425;51.976;5.326;2024-02-23T07:44:25;20.15;;;4.55;;
61553;SDS011;47425;51.976;5.326;2024-02-23T07:46:51;19.20;;;4.40;;
61553;SDS011;47425;51.976;5.326;2024-02-23T07:49:21;16.25;;;4.07;;
61553;SDS011;47425;51.976;5.326;2024-02-23T07:51:49;14.40;;;3.75;;
61553;SDS011;47425;51.976;5.326;2024-02-23T07:54:18;13.48;;;3.40;;
61553;SDS011;47425;51.976;5.326;2024-02-23T07:56:45;11.88;;;3.15;;
61553;SDS011;47425;51.976;5.326;2024-02-23T07:59:10;13.15;;;3.20;;
61553;SDS011;47425;51.976;5.326;2024-02-23T08:01:38;12.65;;;3.05;;
61553;SDS011;47425;51.976;5.326;2024-02-23T08:04:05;10.32;;;2.92;;
61553;SDS011;47425;51.976;5.326;2024-02-23T08:06:32;9.65;;;2.75;;
61553;SDS011;47425;51.976;5.326;2024-02-23T08:09:00;5.90;;;2.55;;
61553;SDS011;47425;51.976;5.326;2024-02-23T08:13:55;10.02;;;2.10;;
61553;SDS011;47425;51.976;5.326;2024-02-23T08:16:22;4.90;;;2.08;;
61553;SDS011;47425;51.976;5.326;2024-02-23T08:18:48;6.57;;;2.08;;
61553;SDS011;47425;51.976;5.326;2024-02-23T08:21:15;8.40;;;1.92;;
61553;SDS011;47425;51.976;5.326;2024-02-23T08:23:41;3.90;;;1.58;;
61553;SDS011;47425;51.976;5.326;2024-02-23T08:26:11;7.03;;;2.63;;
61553;SDS011;47425;51.976;5.326;2024-02-23T08:28:37;7.53;;;1.77;;
61553;SDS011;47425;51.976;5.326;2024-02-23T08:31:04;8.00;;;2.13;;
61553;SDS011;47425;51.976;5.326;2024-02-23T08:33:31;8.23;;;1.63;;
61553;SDS011;47425;51.976;5.326;2024-02-23T08:35:57;3.83;;;1.50;;
61553;SDS011;47425;51.976;5.326;2024-02-23T08:38:25;7.25;;;1.70;;
61553;SDS011;47425;51.976;5.326;2024-02-23T08:40:52;7.63;;;1.70;;
61553;SDS011;47425;51.976;5.326;2024-02-23T08:43:20;4.45;;;1.55;;
61553;SDS011;47425;51.976;5.326;2024-02-23T08:45:46;6.15;;;1.40;;
61553;SDS011;47425;51.976;5.326;2024-02-23T08:48:15;9.18;;;1.50;;
61553;SDS011;47425;51.976;5.326;2024-02-23T08:50:42;3.25;;;1.38;;
61553;SDS011;47425;51.976;5.326;2024-02-23T08:53:10;5.35;;;1.20;;
61553;SDS011;47425;51.976;5.326;2024-02-23T08:55:36;5.57;;;1.50;;
61553;SDS011;47425;51.976;5.326;2024-02-23T08:58:03;3.42;;;1.33;;
61553;SDS011;47425;51.976;5.326;2024-02-23T09:00:32;4.97;;;1.10;;
61553;SDS011;47425;51.976;5.326;2024-02-23T09:03:00;5.32;;;1.30;;
61553;SDS011;47425;51.976;5.326;2024-02-23T09:05:26;5.00;;;1.30;;
61553;SDS011;47425;51.976;5.326;2024-02-23T09:07:53;5.05;;;1.05;;
61553;SDS011;47425;51.976;5.326;2024-02-23T09:10:20;5.53;;;1.30;;
61553;SDS011;47425;51.976;5.326;2024-02-23T09:12:47;5.30;;;1.40;;
61553;SDS011;47425;51.976;5.326;2024-02-23T09:15:14;5.97;;;1.20;;
61553;SDS011;47425;51.976;5.326;2024-02-23T09:17:42;2.50;;;1.13;;
61553;SDS011;47425;51.976;5.326;2024-02-23T09:20:09;3.80;;;1.23;;
61553;SDS011;47425;51.976;5.326;2024-02-23T09:22:37;3.13;;;1.25;;
61553;SDS011;47425;51.976;5.326;2024-02-23T09:25:05;4.35;;;1.35;;
61553;SDS011;47425;51.976;5.326;2024-02-23T09:27:33;4.80;;;1.25;;
61553;SDS011;47425;51.976;5.326;2024-02-23T09:30:03;1.85;;;0.98;;
61553;SDS011;47425;51.976;5.326;2024-02-23T09:32:30;4.30;;;1.10;;
61553;SDS011;47425;51.976;5.326;2024-02-23T09:34:58;2.50;;;0.98;;
61553;SDS011;47425;51.976;5.326;2024-02-23T09:37:25;3.87;;;1.37;;
61553;SDS011;47425;51.976;5.326;2024-02-23T09:39:51;3.42;;;1.20;;
61553;SDS011;47425;51.976;5.326;2024-02-23T09:42:19;3.22;;;1.17;;
61553;SDS011;47425;51.976;5.326;2024-02-23T09:44:51;3.88;;;1.15;;
61553;SDS011;47425;51.976;5.326;2024-02-23T09:47:25;7.10;;;1.73;;
61553;SDS011;47425;51.976;5.326;2024-02-23T09:49:53;3.20;;;1.20;;
61553;SDS011;47425;51.976;5.326;2024-02-23T09:52:21;2.83;;;1.17;;
61553;SDS011;47425;51.976;5.326;2024-02-23T09:54:50;4.72;;;1.30;;
61553;SDS011;47425;51.976;5.326;2024-02-23T09:57:16;3.42;;;1.33;;
61553;SDS011;47425;51.976;5.326;2024-02-23T09:59:44;3.15;;;1.17;;
61553;SDS011;47425;51.976;5.326;2024-02-23T10:02:13;3.85;;;1.42;;
61553;SDS011;47425;51.976;5.326;2024-02-23T10:04:41;4.07;;;1.23;;
61553;SDS011;47425;51.976;5.326;2024-02-23T10:07:09;5.40;;;1.35;;
61553;SDS011;47425;51.976;5.326;2024-02-23T10:09:39;3.77;;;1.20;;
61553;SDS011;47425;51.976;5.326;2024-02-23T10:12:05;5.50;;;1.50;;
61553;SDS011;47425;51.976;5.326;2024-02-23T10:14:33;3.88;;;1.27;;
61553;SDS011;47425;51.976;5.326;2024-02-23T10:17:00;3.60;;;1.13;;
61553;SDS011;47425;51.976;5.326;2024-02-23T10:19:27;3.17;;;1.10;;
61553;SDS011;47425;51.976;5.326;2024-02-23T10:24:23;4.15;;;1.58;;
61553;SDS011;47425;51.976;5.326;2024-02-23T10:26:51;3.70;;;1.00;;
61553;SDS011;47425;51.976;5.326;2024-02-23T10:29:18;2.17;;;0.93;;
61553;SDS011;47425;51.976;5.326;2024-02-23T10:31:45;3.25;;;1.15;;
61553;SDS011;47425;51.976;5.326;2024-02-23T10:34:17;3.20;;;1.10;;
61553;SDS011;47425;51.976;5.326;2024-02-23T10:36:45;2.78;;;1.10;;
61553;SDS011;47425;51.976;5.326;2024-02-23T10:39:15;2.28;;;1.00;;
61553;SDS011;47425;51.976;5.326;2024-02-23T10:41:44;3.15;;;0.98;;
61553;SDS011;47425;51.976;5.326;2024-02-23T10:44:15;1.80;;;0.90;;
61553;SDS011;47425;51.976;5.326;2024-02-23T10:46:44;3.90;;;1.00;;
61553;SDS011;47425;51.976;5.326;2024-02-23T10:49:12;2.78;;;0.88;;
61553;SDS011;47425;51.976;5.326;2024-02-23T10:51:41;3.10;;;0.80;;
61553;SDS011;47425;51.976;5.326;2024-02-23T10:54:09;4.47;;;1.23;;
61553;SDS011;47425;51.976;5.326;2024-02-23T10:56:37;2.75;;;0.88;;
61553;SDS011;47425;51.976;5.326;2024-02-23T10:59:05;2.63;;;0.83;;
61553;SDS011;47425;51.976;5.326;2024-02-23T11:04:04;4.50;;;1.15;;
61553;SDS011;47425;51.976;5.326;2024-02-23T11:06:33;4.85;;;0.90;;
61553;SDS011;47425;51.976;5.326;2024-02-23T11:09:06;2.78;;;1.00;;
61553;SDS011;47425;51.976;5.326;2024-02-23T11:11:36;1.85;;;0.77;;
61553;SDS011;47425;51.976;5.326;2024-02-23T11:14:03;1.73;;;0.80;;
61553;SDS011;47425;51.976;5.326;2024-02-23T11:16:38;4.72;;;1.20;;
61553;SDS011;47425;51.976;5.326;2024-02-23T11:19:07;1.80;;;0.88;;
61553;SDS011;47425;51.976;5.326;2024-02-23T11:21:36;4.15;;;1.42;;
61553;SDS011;47425;51.976;5.326;2024-02-23T11:24:05;4.65;;;1.30;;
61553;SDS011;47425;51.976;5.326;2024-02-23T11:26:33;2.43;;;0.93;;
61553;SDS011;47425;51.976;5.326;2024-02-23T11:29:09;2.05;;;0.85;;
61553;SDS011;47425;51.976;5.326;2024-02-23T11:31:43;2.38;;;0.70;;
61553;SDS011;47425;51.976;5.326;2024-02-23T11:34:10;2.50;;;0.90;;
61553;SDS011;47425;51.976;5.326;2024-02-23T11:36:38;1.73;;;0.82;;
61553;SDS011;47425;51.976;5.326;2024-02-23T11:39:06;1.67;;;0.90;;
61553;SDS011;47425;51.976;5.326;2024-02-23T11:41:36;1.65;;;0.70;;
61553;SDS011;47425;51.976;5.326;2024-02-23T11:44:04;3.93;;;1.20;;
61553;SDS011;47425;51.976;5.326;2024-02-23T11:46:32;2.72;;;1.10;;
61553;SDS011;47425;51.976;5.326;2024-02-23T11:49:00;5.53;;;1.27;;
61553;SDS011;47425;51.976;5.326;2024-02-23T11:51:28;3.30;;;1.00;;
61553;SDS011;47425;51.976;5.326;2024-02-23T11:53:56;3.65;;;1.00;;
61553;SDS011;47425;51.976;5.326;2024-02-23T11:56:25;3.42;;;1.20;;
61553;SDS011;47425;51.976;5.326;2024-02-23T11:58:52;3.42;;;1.00;;
61553;SDS011;47425;51.976;5.326;2024-02-23T12:01:19;3.40;;;1.40;;
61553;SDS011;47425;51.976;5.326;2024-02-23T12:03:47;4.38;;;1.00;;
61553;SDS011;47425;51.976;5.326;2024-02-23T12:06:15;6.13;;;1.40;;
61553;SDS011;47425;51.976;5.326;2024-02-23T12:11:11;2.97;;;1.00;;
61553;SDS011;47425;51.976;5.326;2024-02-23T12:13:38;2.55;;;1.00;;
61553;SDS011;47425;51.976;5.326;2024-02-23T12:16:07;2.63;;;0.90;;
61553;SDS011;47425;51.976;5.326;2024-02-23T12:18:35;2.78;;;1.10;;
61553;SDS011;47425;51.976;5.326;2024-02-23T12:21:03;4.25;;;1.00;;
61553;SDS011;47425;51.976;5.326;2024-02-23T12:23:39;3.30;;;1.00;;
61553;SDS011;47425;51.976;5.326;2024-02-23T12:26:07;3.22;;;0.90;;
61553;SDS011;47425;51.976;5.326;2024-02-23T12:28:35;2.95;;;1.13;;
61553;SDS011;47425;51.976;5.326;2024-02-23T12:31:03;4.18;;;1.13;;
61553;SDS011;47425;51.976;5.326;2024-02-23T12:33:31;2.00;;;0.85;;
61553;SDS011;47425;51.976;5.326;2024-02-23T12:38:26;1.35;;;0.80;;
61553;SDS011;47425;51.976;5.326;2024-02-23T12:40:55;2.38;;;0.98;;
61553;SDS011;47425;51.976;5.326;2024-02-23T12:43:22;3.28;;;1.08;;
61553;SDS011;47425;51.976;5.326;2024-02-23T12:45:49;2.70;;;1.05;;
61553;SDS011;47425;51.976;5.326;2024-02-23T12:48:16;3.33;;;0.98;;
61553;SDS011;47425;51.976;5.326;2024-02-23T12:50:43;2.67;;;1.35;;
61553;SDS011;47425;51.976;5.326;2024-02-23T12:53:11;5.05;;;1.27;;
61553;SDS011;47425;51.976;5.326;2024-02-23T12:56:00;6.43;;;1.10;;
61553;SDS011;47425;51.976;5.326;2024-02-23T13:00:54;3.10;;;0.80;;
61553;SDS011;47425;51.976;5.326;2024-02-23T13:03:21;4.07;;;1.25;;
61553;SDS011;47425;51.976;5.326;2024-02-23T13:05:48;4.13;;;1.45;;
61553;SDS011;47425;51.976;5.326;2024-02-23T13:10:45;2.28;;;0.88;;
61553;SDS011;47425;51.976;5.326;2024-02-23T13:13:13;2.50;;;0.98;;
61553;SDS011;47425;51.976;5.326;2024-02-23T13:15:40;5.00;;;1.25;;
61553;SDS011;47425;51.976;5.326;2024-02-23T13:18:07;3.13;;;1.10;;
61553;SDS011;47425;51.976;5.326;2024-02-23T13:20:34;5.07;;;1.30;;
61553;SDS011;47425;51.976;5.326;2024-02-23T13:23:00;5.22;;;1.13;;
61553;SDS011;47425;51.976;5.326;2024-02-23T13:25:27;2.83;;;0.90;;
61553;SDS011;47425;51.976;5.326;2024-02-23T13:27:54;2.95;;;0.88;;
61553;SDS011;47425;51.976;5.326;2024-02-23T13:30:23;3.07;;;0.90;;
61553;SDS011;47425;51.976;5.326;2024-02-23T13:32:50;3.97;;;1.00;;
61553;SDS011;47425;51.976;5.326;2024-02-23T13:35:17;3.22;;;0.95;;
61553;SDS011;47425;51.976;5.326;2024-02-23T13:37:44;2.25;;;0.88;;
61553;SDS011;47425;51.976;5.326;2024-02-23T13:40:11;2.70;;;0.95;;
61553;SDS011;47425;51.976;5.326;2024-02-23T13:42:38;5.30;;;1.40;;
61553;SDS011;47425;51.976;5.326;2024-02-23T13:45:06;2.38;;;0.90;;
61553;SDS011;47425;51.976;5.326;2024-02-23T13:47:35;2.45;;;0.90;;
61553;SDS011;47425;51.976;5.326;2024-02-23T13:50:02;3.20;;;0.90;;
61553;SDS011;47425;51.976;5.326;2024-02-23T13:52:29;2.45;;;0.90;;
61553;SDS011;47425;51.976;5.326;2024-02-23T13:54:55;3.58;;;0.98;;
61553;SDS011;47425;51.976;5.326;2024-02-23T13:57:23;2.58;;;0.68;;
61553;SDS011;47425;51.976;5.326;2024-02-23T13:59:50;2.92;;;0.85;;
61553;SDS011;47425;51.976;5.326;2024-02-23T14:02:23;1.52;;;0.77;;
61553;SDS011;47425;51.976;5.326;2024-02-23T14:04:52;4.35;;;1.13;;
61553;SDS011;47425;51.976;5.326;2024-02-23T14:07:20;1.67;;;0.75;;
61553;SDS011;47425;51.976;5.326;2024-02-23T14:09:48;2.05;;;0.95;;
61553;SDS011;47425;51.976;5.326;2024-02-23T14:12:14;3.13;;;1.23;;
61553;SDS011;47425;51.976;5.326;2024-02-23T14:14:41;4.10;;;1.35;;
61553;SDS011;47425;51.976;5.326;2024-02-23T14:17:07;2.10;;;0.82;;
61553;SDS011;47425;51.976;5.326;2024-02-23T14:19:43;2.78;;;1.23;;
61553;SDS011;47425;51.976;5.326;2024-02-23T14:22:11;2.67;;;0.90;;
61553;SDS011;47425;51.976;5.326;2024-02-23T14:24:42;3.10;;;0.90;;
61553;SDS011;47425;51.976;5.326;2024-02-23T14:27:08;2.53;;;0.80;;
61553;SDS011;47425;51.976;5.326;2024-02-23T14:29:35;1.55;;;0.80;;
61553;SDS011;47425;51.976;5.326;2024-02-23T14:32:02;3.58;;;1.23;;
61553;SDS011;47425;51.976;5.326;2024-02-23T14:34:29;1.33;;;0.80;;
61553;SDS011;47425;51.976;5.326;2024-02-23T14:36:59;2.33;;;0.73;;
61553;SDS011;47425;51.976;5.326;2024-02-23T14:39:27;2.00;;;0.90;;
61553;SDS011;47425;51.976;5.326;2024-02-23T14:41:54;2.17;;;0.70;;
61553;SDS011;47425;51.976;5.326;2024-02-23T14:44:22;1.65;;;0.90;;
61553;SDS011;47425;51.976;5.326;2024-02-23T14:46:49;2.03;;;0.70;;
61553;SDS011;47425;51.976;5.326;2024-02-23T14:49:17;1.33;;;0.98;;
61553;SDS011;47425;51.976;5.326;2024-02-23T14:51:43;2.08;;;0.77;;
61553;SDS011;47425;51.976;5.326;2024-02-23T14:54:11;1.58;;;0.50;;
61553;SDS011;47425;51.976;5.326;2024-02-23T14:56:39;1.90;;;0.68;;
61553;SDS011;47425;51.976;5.326;2024-02-23T14:59:06;1.57;;;0.83;;
61553;SDS011;47425;51.976;5.326;2024-02-23T15:01:36;2.35;;;0.90;;
61553;SDS011;47425;51.976;5.326;2024-02-23T15:04:03;2.80;;;0.70;;
61553;SDS011;47425;51.976;5.326;2024-02-23T15:06:30;1.75;;;0.80;;
61553;SDS011;47425;51.976;5.326;2024-02-23T15:08:57;1.85;;;0.73;;